Погода Межнона 2 недели

Лодзинское воеводство, Польша

24 мая-06 июня
  • 24мая
    Сегодня
    +12°
    +28°
    Небольшая облачность
    ВремяПогодаТемператураВлажностьДавлениеВетер, м/сВероятность осадков
    02:00Небольшая облачность, ливень+14°C96 %749 мм0.8 м/с44 %
    05:00Ясно и безоблачно+13°C99 %750 мм0.7 м/с20 %
    08:00Ясно и безоблачно+17°C86 %750 мм0.8 м/с2 %
    11:00Ясно и безоблачно+22°C64 %751 мм2.5 м/с2 %
    14:00Небольшая облачность+24°C55 %750 мм3.4 м/с7 %
    17:00Небольшая облачность+22°C51 %749 мм4.0 м/с24 %
    20:00Ясно и безоблачно+20°C75 %749 мм1.6 м/с11 %
    23:00Ясно и безоблачно+16°C83 %750 мм1.4 м/с1 %
  • 25мая
    Суббота
    +12°
    +26°
    Небольшая облачность
    ВремяПогодаТемператураВлажностьДавлениеВетер, м/сВероятность осадков
    02:00Ясно и безоблачно+14°C87 %750 мм1.4 м/с2 %
    05:00Небольшая облачность+12°C91 %750 мм1.0 м/с2 %
    08:00Облачно с прояснениями+18°C75 %751 мм1.6 м/с1 %
    11:00Облачно с прояснениями+22°C55 %751 мм2.1 м/с22 %
    14:00Небольшая облачность+22°C47 %750 мм2.3 м/с27 %
    17:00Небольшая облачность, возможен дождь с грозой+22°C49 %750 мм2.9 м/с46 %
    20:00Облачно с прояснениями+20°C80 %750 мм1.8 м/с36 %
    23:00Ясно и безоблачно+16°C94 %750 мм1.3 м/с5 %
  • 26мая
    Воскресенье
    +11°
    +25°
    Небольшая облачность
    ВремяПогодаТемператураВлажностьДавлениеВетер, м/сВероятность осадков
    02:00Ясно и безоблачно+14°C94 %750 мм0.8 м/с2 %
    05:00Ясно и безоблачно+12°C97 %750 мм0.8 м/с2 %
    08:00Ясно и безоблачно+18°C74 %751 мм1.1 м/с2 %
    11:00Практически безоблачно+24°C44 %751 мм2.4 м/с3 %
    14:00Небольшая облачность+25°C36 %751 мм3.1 м/с23 %
    17:00Практически безоблачно+22°C45 %751 мм2.5 м/с41 %
    20:00Практически безоблачно+20°C53 %751 мм2.5 м/с25 %
    23:00Небольшая облачность+16°C81 %751 мм1.3 м/с3 %
  • 27мая
    Понедельник
    +11°
    +26°
    Ясно и безоблачно
    ВремяПогодаТемператураВлажностьДавлениеВетер, м/сВероятность осадков
    02:00Ясно и безоблачно+13°C91 %751 мм1.3 м/с2 %
    05:00Ясно и безоблачно+12°C92 %751 мм1.3 м/с2 %
    08:00Ясно и безоблачно+18°C63 %752 мм1.8 м/с2 %
    11:00Ясно и безоблачно+24°C36 %752 мм2.9 м/с6 %
    14:00Ясно и безоблачно+25°C24 %751 мм4.3 м/с10 %
    17:00Ясно и безоблачно+24°C23 %750 мм4.1 м/с8 %
    20:00Ясно и безоблачно+21°C41 %750 мм2.8 м/с6 %
    23:00Ясно и безоблачно+16°C42 %751 мм2.3 м/с2 %
  • 28мая
    Вторник
    +13°
    +25°
    Практически безоблачно
    ВремяПогодаТемператураВлажностьДавлениеВетер, м/сВероятность осадков
    02:00Ясно и безоблачно+14°C52 %750 мм1.8 м/с2 %
    05:00Ясно и безоблачно+12°C63 %750 мм1.4 м/с2 %
    08:00Ясно и безоблачно+18°C49 %750 мм2.6 м/с2 %
    11:00Практически безоблачно+23°C26 %750 мм4.6 м/с2 %
    14:00Практически безоблачно+24°C26 %750 мм4.5 м/с2 %
    17:00Облачно с прояснениями+24°C25 %748 мм3.5 м/с2 %
    20:00Практически безоблачно+22°C47 %748 мм2.2 м/с4 %
    23:00Практически безоблачно+17°C55 %748 мм1.5 м/с2 %
Мы используем cookies
Соглашаюсь